Swanmore, United Kingdom
Current Conditions -  °F | °C
As of 1:50 PM on Saturday 25 Oct 2014 (Local Time) from EGHI Reporting Station
Scattered Clouds Scattered Clouds  
Wind Chill: 15°   Ceiling: Unl
Heat Index: 15°   Visibility: 6mi
Dew Point:   Wind: 12mph
Humidity: 55%   Direction: 270°W
Pressure: 30.09"   Gusts: NA
Location:  50.94°N, 1.18°W
Report Text: EGHI 251250Z 27010KT 230V300 9999 SCT046 15/06 Q1019
Loading
Personal Weather Stations






























Interactive Weather Map
Tropical Storm Tracking
New forecast layout! Learn more

10-Day Weather Forecast

Advertisements
Track Severe Weather on mobile